sensor_id;sensor_type;location;lat;lon;timestamp;P1;durP1;ratioP1;P2;durP2;ratioP2
70312;SDS011;57723;51.698;5.344;2022-11-18T00:01:03;1.70;;;0.80;;
70312;SDS011;57723;51.698;5.344;2022-11-18T00:03:29;2.67;;;1.13;;
70312;SDS011;57723;51.698;5.344;2022-11-18T00:05:55;3.07;;;1.10;;
70312;SDS011;57723;51.698;5.344;2022-11-18T00:08:22;2.10;;;1.00;;
70312;SDS011;57723;51.698;5.344;2022-11-18T00:10:48;1.38;;;0.90;;
70312;SDS011;57723;51.698;5.344;2022-11-18T00:13:14;3.27;;;0.90;;
70312;SDS011;57723;51.698;5.344;2022-11-18T00:16:02;3.15;;;0.98;;
70312;SDS011;57723;51.698;5.344;2022-11-18T00:18:28;3.40;;;0.95;;
70312;SDS011;57723;51.698;5.344;2022-11-18T00:20:54;3.27;;;0.97;;
70312;SDS011;57723;51.698;5.344;2022-11-18T00:23:20;2.28;;;1.00;;
70312;SDS011;57723;51.698;5.344;2022-11-18T00:25:46;6.13;;;0.98;;
70312;SDS011;57723;51.698;5.344;2022-11-18T00:28:12;2.80;;;1.08;;
70312;SDS011;57723;51.698;5.344;2022-11-18T00:30:38;2.83;;;0.93;;
70312;SDS011;57723;51.698;5.344;2022-11-18T00:33:03;6.60;;;1.33;;
70312;SDS011;57723;51.698;5.344;2022-11-18T00:35:28;2.03;;;0.83;;
70312;SDS011;57723;51.698;5.344;2022-11-18T00:37:53;2.00;;;0.90;;
70312;SDS011;57723;51.698;5.344;2022-11-18T00:40:18;2.67;;;0.90;;
70312;SDS011;57723;51.698;5.344;2022-11-18T00:42:43;2.93;;;1.00;;
70312;SDS011;57723;51.698;5.344;2022-11-18T00:45:21;1.60;;;0.75;;
70312;SDS011;57723;51.698;5.344;2022-11-18T00:47:46;4.35;;;0.90;;
70312;SDS011;57723;51.698;5.344;2022-11-18T00:50:12;2.03;;;0.80;;
70312;SDS011;57723;51.698;5.344;2022-11-18T00:52:37;2.00;;;0.90;;
70312;SDS011;57723;51.698;5.344;2022-11-18T00:55:03;2.67;;;0.90;;
70312;SDS011;57723;51.698;5.344;2022-11-18T00:57:28;1.80;;;0.80;;
70312;SDS011;57723;51.698;5.344;2022-11-18T00:59:53;3.17;;;0.90;;
70312;SDS011;57723;51.698;5.344;2022-11-18T01:02:18;2.20;;;0.90;;
70312;SDS011;57723;51.698;5.344;2022-11-18T01:04:43;3.40;;;1.10;;
70312;SDS011;57723;51.698;5.344;2022-11-18T01:07:09;2.43;;;0.90;;
70312;SDS011;57723;51.698;5.344;2022-11-18T01:09:34;1.67;;;0.90;;
70312;SDS011;57723;51.698;5.344;2022-11-18T01:11:59;2.30;;;0.80;;
70312;SDS011;57723;51.698;5.344;2022-11-18T01:14:43;2.80;;;1.08;;
70312;SDS011;57723;51.698;5.344;2022-11-18T01:17:08;3.03;;;1.00;;
70312;SDS011;57723;51.698;5.344;2022-11-18T01:19:33;2.00;;;0.70;;
70312;SDS011;57723;51.698;5.344;2022-11-18T01:21:59;2.13;;;0.83;;
70312;SDS011;57723;51.698;5.344;2022-11-18T01:24:27;3.63;;;1.10;;
70312;SDS011;57723;51.698;5.344;2022-11-18T01:26:52;1.63;;;0.80;;
70312;SDS011;57723;51.698;5.344;2022-11-18T01:29:17;1.30;;;0.70;;
70312;SDS011;57723;51.698;5.344;2022-11-18T01:31:43;4.23;;;0.97;;
70312;SDS011;57723;51.698;5.344;2022-11-18T01:34:08;1.90;;;0.97;;
70312;SDS011;57723;51.698;5.344;2022-11-18T01:36:33;3.37;;;0.90;;
70312;SDS011;57723;51.698;5.344;2022-11-18T01:38:59;4.50;;;1.07;;
70312;SDS011;57723;51.698;5.344;2022-11-18T01:41:24;2.78;;;0.82;;
70312;SDS011;57723;51.698;5.344;2022-11-18T01:46:21;1.23;;;0.80;;
70312;SDS011;57723;51.698;5.344;2022-11-18T01:48:48;2.25;;;0.77;;
70312;SDS011;57723;51.698;5.344;2022-11-18T01:51:15;4.10;;;1.10;;
70312;SDS011;57723;51.698;5.344;2022-11-18T01:53:42;1.67;;;0.85;;
70312;SDS011;57723;51.698;5.344;2022-11-18T01:56:22;2.53;;;0.90;;
70312;SDS011;57723;51.698;5.344;2022-11-18T01:58:51;2.92;;;0.98;;
70312;SDS011;57723;51.698;5.344;2022-11-18T02:01:17;2.97;;;0.90;;
70312;SDS011;57723;51.698;5.344;2022-11-18T02:03:42;2.40;;;0.93;;
70312;SDS011;57723;51.698;5.344;2022-11-18T02:06:08;4.80;;;0.90;;
70312;SDS011;57723;51.698;5.344;2022-11-18T02:08:35;1.60;;;0.80;;
70312;SDS011;57723;51.698;5.344;2022-11-18T02:11:02;2.45;;;0.90;;
70312;SDS011;57723;51.698;5.344;2022-11-18T02:13:27;1.80;;;0.80;;
70312;SDS011;57723;51.698;5.344;2022-11-18T02:18:42;1.95;;;0.82;;
70312;SDS011;57723;51.698;5.344;2022-11-18T02:21:29;2.33;;;0.82;;
70312;SDS011;57723;51.698;5.344;2022-11-18T02:26:53;1.73;;;0.80;;
70312;SDS011;57723;51.698;5.344;2022-11-18T02:29:25;2.50;;;0.80;;
70312;SDS011;57723;51.698;5.344;2022-11-18T02:34:30;2.23;;;0.83;;
70312;SDS011;57723;51.698;5.344;2022-11-18T02:36:57;3.22;;;0.80;;
70312;SDS011;57723;51.698;5.344;2022-11-18T02:39:28;2.00;;;0.80;;
70312;SDS011;57723;51.698;5.344;2022-11-18T02:41:54;1.98;;;0.73;;
70312;SDS011;57723;51.698;5.344;2022-11-18T02:44:20;3.38;;;0.82;;
70312;SDS011;57723;51.698;5.344;2022-11-18T02:46:48;3.65;;;0.90;;
70312;SDS011;57723;51.698;5.344;2022-11-18T02:49:18;3.60;;;0.77;;
70312;SDS011;57723;51.698;5.344;2022-11-18T02:51:44;2.17;;;0.80;;
70312;SDS011;57723;51.698;5.344;2022-11-18T02:54:10;2.47;;;1.00;;
70312;SDS011;57723;51.698;5.344;2022-11-18T02:56:36;2.05;;;0.80;;
70312;SDS011;57723;51.698;5.344;2022-11-18T02:59:02;2.40;;;0.87;;
70312;SDS011;57723;51.698;5.344;2022-11-18T03:01:28;1.60;;;0.70;;
70312;SDS011;57723;51.698;5.344;2022-11-18T03:03:54;1.77;;;0.70;;
70312;SDS011;57723;51.698;5.344;2022-11-18T03:06:27;1.87;;;0.90;;
70312;SDS011;57723;51.698;5.344;2022-11-18T03:09:02;2.35;;;0.90;;
70312;SDS011;57723;51.698;5.344;2022-11-18T03:11:33;1.90;;;0.70;;
70312;SDS011;57723;51.698;5.344;2022-11-18T03:16:28;1.90;;;0.80;;
70312;SDS011;57723;51.698;5.344;2022-11-18T03:19:02;2.45;;;0.80;;
70312;SDS011;57723;51.698;5.344;2022-11-18T03:21:34;4.28;;;0.80;;
70312;SDS011;57723;51.698;5.344;2022-11-18T03:24:13;2.45;;;0.80;;
70312;SDS011;57723;51.698;5.344;2022-11-18T03:26:41;1.55;;;0.70;;
70312;SDS011;57723;51.698;5.344;2022-11-18T03:29:20;1.47;;;0.83;;
70312;SDS011;57723;51.698;5.344;2022-11-18T03:31:52;2.17;;;0.90;;
70312;SDS011;57723;51.698;5.344;2022-11-18T03:34:24;3.15;;;0.90;;
70312;SDS011;57723;51.698;5.344;2022-11-18T03:36:51;2.75;;;0.70;;
70312;SDS011;57723;51.698;5.344;2022-11-18T03:39:18;1.10;;;0.70;;
70312;SDS011;57723;51.698;5.344;2022-11-18T03:41:51;1.67;;;0.70;;
70312;SDS011;57723;51.698;5.344;2022-11-18T03:44:19;1.90;;;0.70;;
70312;SDS011;57723;51.698;5.344;2022-11-18T03:46:46;2.05;;;0.80;;
70312;SDS011;57723;51.698;5.344;2022-11-18T03:49:14;1.35;;;0.60;;
70312;SDS011;57723;51.698;5.344;2022-11-18T03:51:43;1.40;;;0.80;;
70312;SDS011;57723;51.698;5.344;2022-11-18T03:54:14;0.80;;;0.60;;
70312;SDS011;57723;51.698;5.344;2022-11-18T03:56:45;2.33;;;0.80;;
70312;SDS011;57723;51.698;5.344;2022-11-18T03:59:47;1.23;;;0.60;;
70312;SDS011;57723;51.698;5.344;2022-11-18T04:02:10;3.10;;;0.73;;
70312;SDS011;57723;51.698;5.344;2022-11-18T04:04:36;1.23;;;0.80;;
70312;SDS011;57723;51.698;5.344;2022-11-18T04:07:15;1.50;;;0.80;;
70312;SDS011;57723;51.698;5.344;2022-11-18T04:09:45;3.55;;;0.80;;
70312;SDS011;57723;51.698;5.344;2022-11-18T04:12:12;2.72;;;0.90;;
70312;SDS011;57723;51.698;5.344;2022-11-18T04:14:39;2.37;;;0.87;;
70312;SDS011;57723;51.698;5.344;2022-11-18T04:17:06;3.80;;;0.80;;
70312;SDS011;57723;51.698;5.344;2022-11-18T04:19:32;2.03;;;0.77;;
70312;SDS011;57723;51.698;5.344;2022-11-18T04:21:57;2.63;;;0.83;;
70312;SDS011;57723;51.698;5.344;2022-11-18T04:24:22;1.97;;;1.00;;
70312;SDS011;57723;51.698;5.344;2022-11-18T04:26:47;2.67;;;0.70;;
70312;SDS011;57723;51.698;5.344;2022-11-18T04:29:12;3.77;;;0.90;;
70312;SDS011;57723;51.698;5.344;2022-11-18T04:31:37;3.03;;;0.80;;
70312;SDS011;57723;51.698;5.344;2022-11-18T04:34:03;1.53;;;0.80;;
70312;SDS011;57723;51.698;5.344;2022-11-18T04:36:28;5.60;;;0.87;;
70312;SDS011;57723;51.698;5.344;2022-11-18T04:38:53;1.93;;;0.83;;
70312;SDS011;57723;51.698;5.344;2022-11-18T04:41:18;2.23;;;0.70;;
70312;SDS011;57723;51.698;5.344;2022-11-18T04:43:44;1.90;;;0.80;;
70312;SDS011;57723;51.698;5.344;2022-11-18T04:46:09;1.33;;;0.80;;
70312;SDS011;57723;51.698;5.344;2022-11-18T04:48:34;1.67;;;0.73;;
70312;SDS011;57723;51.698;5.344;2022-11-18T04:51:03;2.73;;;0.80;;
70312;SDS011;57723;51.698;5.344;2022-11-18T04:53:28;1.95;;;0.80;;
70312;SDS011;57723;51.698;5.344;2022-11-18T04:55:53;2.53;;;0.70;;
70312;SDS011;57723;51.698;5.344;2022-11-18T04:58:18;2.63;;;0.90;;
70312;SDS011;57723;51.698;5.344;2022-11-18T05:00:44;0.67;;;0.60;;
70312;SDS011;57723;51.698;5.344;2022-11-18T05:03:09;1.27;;;0.70;;
70312;SDS011;57723;51.698;5.344;2022-11-18T05:05:34;1.80;;;0.73;;
70312;SDS011;57723;51.698;5.344;2022-11-18T05:07:59;1.37;;;0.70;;
70312;SDS011;57723;51.698;5.344;2022-11-18T05:10:24;1.17;;;0.73;;
70312;SDS011;57723;51.698;5.344;2022-11-18T05:12:50;1.55;;;0.70;;
70312;SDS011;57723;51.698;5.344;2022-11-18T05:15:16;4.60;;;0.90;;
70312;SDS011;57723;51.698;5.344;2022-11-18T05:17:42;2.83;;;0.70;;
70312;SDS011;57723;51.698;5.344;2022-11-18T05:20:08;4.70;;;0.90;;
70312;SDS011;57723;51.698;5.344;2022-11-18T05:22:33;1.38;;;0.70;;
70312;SDS011;57723;51.698;5.344;2022-11-18T05:24:59;2.60;;;0.80;;
70312;SDS011;57723;51.698;5.344;2022-11-18T05:27:27;2.58;;;0.70;;
70312;SDS011;57723;51.698;5.344;2022-11-18T05:29:52;2.53;;;0.70;;
70312;SDS011;57723;51.698;5.344;2022-11-18T05:32:21;1.53;;;0.70;;
70312;SDS011;57723;51.698;5.344;2022-11-18T05:34:49;3.63;;;0.82;;
70312;SDS011;57723;51.698;5.344;2022-11-18T05:37:14;1.83;;;0.70;;
70312;SDS011;57723;51.698;5.344;2022-11-18T05:39:39;1.95;;;0.73;;
70312;SDS011;57723;51.698;5.344;2022-11-18T05:42:05;4.97;;;0.80;;
70312;SDS011;57723;51.698;5.344;2022-11-18T05:44:49;2.00;;;0.80;;
70312;SDS011;57723;51.698;5.344;2022-11-18T05:47:15;1.58;;;0.70;;
70312;SDS011;57723;51.698;5.344;2022-11-18T05:49:44;2.75;;;0.80;;
70312;SDS011;57723;51.698;5.344;2022-11-18T05:52:12;4.07;;;0.80;;
70312;SDS011;57723;51.698;5.344;2022-11-18T05:54:38;4.20;;;0.80;;
70312;SDS011;57723;51.698;5.344;2022-11-18T05:57:03;1.95;;;0.80;;
70312;SDS011;57723;51.698;5.344;2022-11-18T05:59:29;5.23;;;1.00;;
70312;SDS011;57723;51.698;5.344;2022-11-18T06:02:02;4.47;;;1.10;;
70312;SDS011;57723;51.698;5.344;2022-11-18T06:04:39;3.33;;;0.80;;
70312;SDS011;57723;51.698;5.344;2022-11-18T06:07:07;4.55;;;0.80;;
70312;SDS011;57723;51.698;5.344;2022-11-18T06:09:41;9.55;;;1.50;;
70312;SDS011;57723;51.698;5.344;2022-11-18T06:12:07;5.60;;;2.78;;
70312;SDS011;57723;51.698;5.344;2022-11-18T06:14:38;7.50;;;6.80;;
70312;SDS011;57723;51.698;5.344;2022-11-18T06:17:05;10.00;;;9.15;;
70312;SDS011;57723;51.698;5.344;2022-11-18T06:19:32;15.93;;;14.75;;
70312;SDS011;57723;51.698;5.344;2022-11-18T06:21:58;24.20;;;17.70;;
70312;SDS011;57723;51.698;5.344;2022-11-18T06:24:24;17.30;;;15.82;;
70312;SDS011;57723;51.698;5.344;2022-11-18T06:26:49;18.87;;;17.57;;
70312;SDS011;57723;51.698;5.344;2022-11-18T06:29:15;20.60;;;19.08;;
70312;SDS011;57723;51.698;5.344;2022-11-18T06:31:41;20.17;;;18.77;;
70312;SDS011;57723;51.698;5.344;2022-11-18T06:34:09;20.98;;;19.58;;
70312;SDS011;57723;51.698;5.344;2022-11-18T06:36:34;18.57;;;17.33;;
70312;SDS011;57723;51.698;5.344;2022-11-18T06:39:04;20.93;;;19.10;;
70312;SDS011;57723;51.698;5.344;2022-11-18T06:41:30;22.13;;;20.42;;
70312;SDS011;57723;51.698;5.344;2022-11-18T06:43:55;21.50;;;20.10;;
70312;SDS011;57723;51.698;5.344;2022-11-18T06:46:23;21.15;;;19.52;;
70312;SDS011;57723;51.698;5.344;2022-11-18T06:49:08;21.42;;;19.90;;
70312;SDS011;57723;51.698;5.344;2022-11-18T06:51:33;20.73;;;19.25;;
70312;SDS011;57723;51.698;5.344;2022-11-18T06:54:01;20.83;;;19.23;;
70312;SDS011;57723;51.698;5.344;2022-11-18T06:56:27;21.50;;;20.00;;
70312;SDS011;57723;51.698;5.344;2022-11-18T06:58:54;19.80;;;18.40;;
70312;SDS011;57723;51.698;5.344;2022-11-18T07:01:25;20.35;;;18.80;;
70312;SDS011;57723;51.698;5.344;2022-11-18T07:03:51;21.35;;;19.95;;
70312;SDS011;57723;51.698;5.344;2022-11-18T07:06:19;20.13;;;18.67;;
70312;SDS011;57723;51.698;5.344;2022-11-18T07:08:45;20.03;;;18.83;;
70312;SDS011;57723;51.698;5.344;2022-11-18T07:11:16;19.85;;;18.55;;
70312;SDS011;57723;51.698;5.344;2022-11-18T07:13:42;19.87;;;18.60;;
70312;SDS011;57723;51.698;5.344;2022-11-18T07:16:09;21.45;;;19.95;;
70312;SDS011;57723;51.698;5.344;2022-11-18T07:18:35;21.20;;;19.70;;
70312;SDS011;57723;51.698;5.344;2022-11-18T07:21:06;22.30;;;20.90;;
70312;SDS011;57723;51.698;5.344;2022-11-18T07:23:32;22.45;;;20.83;;
70312;SDS011;57723;51.698;5.344;2022-11-18T07:25:57;21.33;;;19.90;;
70312;SDS011;57723;51.698;5.344;2022-11-18T07:28:26;20.33;;;18.73;;
70312;SDS011;57723;51.698;5.344;2022-11-18T07:30:59;20.23;;;18.92;;
70312;SDS011;57723;51.698;5.344;2022-11-18T07:33:25;20.03;;;18.67;;
70312;SDS011;57723;51.698;5.344;2022-11-18T07:35:50;20.55;;;19.10;;
70312;SDS011;57723;51.698;5.344;2022-11-18T07:38:15;20.27;;;18.83;;
70312;SDS011;57723;51.698;5.344;2022-11-18T07:40:41;20.17;;;18.87;;
70312;SDS011;57723;51.698;5.344;2022-11-18T07:43:07;20.40;;;19.00;;
70312;SDS011;57723;51.698;5.344;2022-11-18T07:45:33;21.83;;;20.40;;
70312;SDS011;57723;51.698;5.344;2022-11-18T07:48:01;20.35;;;18.90;;
70312;SDS011;57723;51.698;5.344;2022-11-18T07:50:27;21.80;;;20.30;;
70312;SDS011;57723;51.698;5.344;2022-11-18T07:52:57;22.37;;;20.97;;
70312;SDS011;57723;51.698;5.344;2022-11-18T07:55:23;22.40;;;21.00;;
70312;SDS011;57723;51.698;5.344;2022-11-18T07:57:49;21.63;;;20.13;;
70312;SDS011;57723;51.698;5.344;2022-11-18T08:00:14;20.93;;;19.53;;
70312;SDS011;57723;51.698;5.344;2022-11-18T08:02:40;20.08;;;18.75;;
70312;SDS011;57723;51.698;5.344;2022-11-18T08:05:07;21.27;;;19.95;;
70312;SDS011;57723;51.698;5.344;2022-11-18T08:07:32;21.77;;;20.20;;
70312;SDS011;57723;51.698;5.344;2022-11-18T08:09:57;21.50;;;20.00;;
70312;SDS011;57723;51.698;5.344;2022-11-18T08:12:23;20.60;;;19.23;;
70312;SDS011;57723;51.698;5.344;2022-11-18T08:14:48;21.77;;;20.47;;
70312;SDS011;57723;51.698;5.344;2022-11-18T08:17:13;21.23;;;19.77;;
70312;SDS011;57723;51.698;5.344;2022-11-18T08:19:38;22.27;;;20.87;;
70312;SDS011;57723;51.698;5.344;2022-11-18T08:22:03;3.60;;;1.10;;
70312;SDS011;57723;51.698;5.344;2022-11-18T08:24:29;4.10;;;1.20;;
70312;SDS011;57723;51.698;5.344;2022-11-18T08:26:54;6.10;;;1.03;;
70312;SDS011;57723;51.698;5.344;2022-11-18T08:29:19;3.80;;;1.13;;
70312;SDS011;57723;51.698;5.344;2022-11-18T08:31:44;1.60;;;1.00;;
70312;SDS011;57723;51.698;5.344;2022-11-18T08:34:09;2.50;;;1.10;;
70312;SDS011;57723;51.698;5.344;2022-11-18T08:36:35;3.03;;;0.83;;
70312;SDS011;57723;51.698;5.344;2022-11-18T08:39:02;3.80;;;0.90;;
70312;SDS011;57723;51.698;5.344;2022-11-18T08:41:30;2.85;;;1.00;;
70312;SDS011;57723;51.698;5.344;2022-11-18T08:43:56;3.25;;;1.00;;
70312;SDS011;57723;51.698;5.344;2022-11-18T08:46:21;3.53;;;1.23;;
70312;SDS011;57723;51.698;5.344;2022-11-18T08:48:47;4.23;;;1.40;;
70312;SDS011;57723;51.698;5.344;2022-11-18T08:51:12;3.87;;;1.00;;
70312;SDS011;57723;51.698;5.344;2022-11-18T08:53:38;2.53;;;0.93;;
70312;SDS011;57723;51.698;5.344;2022-11-18T08:56:03;3.57;;;1.27;;
70312;SDS011;57723;51.698;5.344;2022-11-18T08:58:28;2.57;;;0.80;;
70312;SDS011;57723;51.698;5.344;2022-11-18T09:00:54;1.70;;;0.83;;
70312;SDS011;57723;51.698;5.344;2022-11-18T09:03:19;2.78;;;0.90;;
70312;SDS011;57723;51.698;5.344;2022-11-18T09:05:45;2.40;;;0.85;;
70312;SDS011;57723;51.698;5.344;2022-11-18T09:08:10;3.63;;;1.30;;
70312;SDS011;57723;51.698;5.344;2022-11-18T09:10:35;1.97;;;0.80;;
70312;SDS011;57723;51.698;5.344;2022-11-18T09:13:01;3.05;;;1.00;;
70312;SDS011;57723;51.698;5.344;2022-11-18T09:15:26;2.20;;;0.90;;
70312;SDS011;57723;51.698;5.344;2022-11-18T09:17:53;3.10;;;0.80;;
70312;SDS011;57723;51.698;5.344;2022-11-18T09:20:18;4.20;;;1.00;;
70312;SDS011;57723;51.698;5.344;2022-11-18T09:22:44;3.55;;;1.05;;
70312;SDS011;57723;51.698;5.344;2022-11-18T09:25:09;2.90;;;1.20;;
70312;SDS011;57723;51.698;5.344;2022-11-18T09:27:34;2.77;;;0.83;;
70312;SDS011;57723;51.698;5.344;2022-11-18T09:29:59;2.83;;;0.90;;
70312;SDS011;57723;51.698;5.344;2022-11-18T09:32:25;2.73;;;1.00;;
70312;SDS011;57723;51.698;5.344;2022-11-18T09:34:50;1.93;;;0.93;;
70312;SDS011;57723;51.698;5.344;2022-11-18T09:37:15;3.40;;;1.10;;
70312;SDS011;57723;51.698;5.344;2022-11-18T09:39:40;4.93;;;1.20;;
70312;SDS011;57723;51.698;5.344;2022-11-18T09:42:15;3.43;;;1.00;;
70312;SDS011;57723;51.698;5.344;2022-11-18T09:47:17;2.10;;;1.00;;
70312;SDS011;57723;51.698;5.344;2022-11-18T09:49:47;3.10;;;1.10;;
70312;SDS011;57723;51.698;5.344;2022-11-18T09:52:15;2.33;;;1.00;;
70312;SDS011;57723;51.698;5.344;2022-11-18T09:54:41;2.95;;;1.10;;
70312;SDS011;57723;51.698;5.344;2022-11-18T09:59:38;2.67;;;0.80;;
70312;SDS011;57723;51.698;5.344;2022-11-18T10:04:47;2.55;;;0.93;;
70312;SDS011;57723;51.698;5.344;2022-11-18T10:07:17;2.67;;;0.93;;
70312;SDS011;57723;51.698;5.344;2022-11-18T10:09:47;2.90;;;0.95;;
70312;SDS011;57723;51.698;5.344;2022-11-18T10:12:26;3.15;;;1.00;;
70312;SDS011;57723;51.698;5.344;2022-11-18T10:20:32;2.25;;;1.00;;
70312;SDS011;57723;51.698;5.344;2022-11-18T10:23:13;2.83;;;0.95;;
70312;SDS011;57723;51.698;5.344;2022-11-18T10:25:39;2.30;;;0.90;;
70312;SDS011;57723;51.698;5.344;2022-11-18T10:28:13;3.30;;;1.03;;
70312;SDS011;57723;51.698;5.344;2022-11-18T10:30:39;3.42;;;1.10;;
70312;SDS011;57723;51.698;5.344;2022-11-18T10:33:17;3.67;;;1.10;;
70312;SDS011;57723;51.698;5.344;2022-11-18T10:35:43;2.53;;;0.93;;
70312;SDS011;57723;51.698;5.344;2022-11-18T10:40:58;3.10;;;1.10;;
70312;SDS011;57723;51.698;5.344;2022-11-18T10:48:43;3.38;;;1.13;;
70312;SDS011;57723;51.698;5.344;2022-11-18T10:51:22;2.37;;;0.97;;
70312;SDS011;57723;51.698;5.344;2022-11-18T10:53:47;2.88;;;1.13;;
70312;SDS011;57723;51.698;5.344;2022-11-18T10:56:13;2.40;;;1.00;;
70312;SDS011;57723;51.698;5.344;2022-11-18T10:58:40;2.50;;;0.88;;
70312;SDS011;57723;51.698;5.344;2022-11-18T11:01:27;4.25;;;0.93;;
70312;SDS011;57723;51.698;5.344;2022-11-18T11:04:02;3.97;;;1.10;;
70312;SDS011;57723;51.698;5.344;2022-11-18T11:06:33;2.00;;;1.00;;
70312;SDS011;57723;51.698;5.344;2022-11-18T11:09:03;2.30;;;1.10;;
70312;SDS011;57723;51.698;5.344;2022-11-18T11:11:30;2.67;;;0.90;;
70312;SDS011;57723;51.698;5.344;2022-11-18T11:13:59;2.42;;;1.00;;
70312;SDS011;57723;51.698;5.344;2022-11-18T11:16:25;2.00;;;0.90;;
70312;SDS011;57723;51.698;5.344;2022-11-18T11:18:52;2.70;;;1.27;;
70312;SDS011;57723;51.698;5.344;2022-11-18T11:21:19;3.03;;;1.08;;
70312;SDS011;57723;51.698;5.344;2022-11-18T11:23:46;1.98;;;1.00;;
70312;SDS011;57723;51.698;5.344;2022-11-18T11:33:58;2.20;;;1.10;;
70312;SDS011;57723;51.698;5.344;2022-11-18T11:41:34;3.92;;;1.27;;
70312;SDS011;57723;51.698;5.344;2022-11-18T11:44:22;2.30;;;1.10;;
70312;SDS011;57723;51.698;5.344;2022-11-18T11:49:43;2.30;;;0.83;;
70312;SDS011;57723;51.698;5.344;2022-11-18T11:52:19;2.72;;;1.10;;
70312;SDS011;57723;51.698;5.344;2022-11-18T11:54:58;2.17;;;1.15;;
70312;SDS011;57723;51.698;5.344;2022-11-18T11:59:58;2.55;;;1.00;;
70312;SDS011;57723;51.698;5.344;2022-11-18T12:02:31;3.23;;;0.90;;
70312;SDS011;57723;51.698;5.344;2022-11-18T12:04:59;1.48;;;0.90;;
70312;SDS011;57723;51.698;5.344;2022-11-18T12:07:29;2.85;;;1.00;;
70312;SDS011;57723;51.698;5.344;2022-11-18T12:12:42;2.20;;;1.02;;
70312;SDS011;57723;51.698;5.344;2022-11-18T12:15:24;9.60;;;1.47;;
70312;SDS011;57723;51.698;5.344;2022-11-18T12:17:57;6.82;;;1.60;;
70312;SDS011;57723;51.698;5.344;2022-11-18T12:20:57;4.57;;;1.20;;
70312;SDS011;57723;51.698;5.344;2022-11-18T12:28:31;2.10;;;1.00;;
70312;SDS011;57723;51.698;5.344;2022-11-18T12:33:42;4.13;;;1.08;;
70312;SDS011;57723;51.698;5.344;2022-11-18T12:36:07;5.35;;;1.10;;
70312;SDS011;57723;51.698;5.344;2022-11-18T12:38:33;2.95;;;0.98;;
70312;SDS011;57723;51.698;5.344;2022-11-18T12:40:58;2.73;;;1.00;;
70312;SDS011;57723;51.698;5.344;2022-11-18T12:48:49;2.38;;;0.90;;
70312;SDS011;57723;51.698;5.344;2022-11-18T12:53:46;2.67;;;0.80;;
70312;SDS011;57723;51.698;5.344;2022-11-18T12:58:53;4.60;;;1.35;;
70312;SDS011;57723;51.698;5.344;2022-11-18T13:01:23;5.87;;;1.30;;
70312;SDS011;57723;51.698;5.344;2022-11-18T13:03:49;3.92;;;1.40;;
70312;SDS011;57723;51.698;5.344;2022-11-18T13:06:22;3.90;;;0.90;;
70312;SDS011;57723;51.698;5.344;2022-11-18T13:08:49;2.22;;;0.90;;
70312;SDS011;57723;51.698;5.344;2022-11-18T13:11:15;2.05;;;0.90;;
70312;SDS011;57723;51.698;5.344;2022-11-18T13:14:00;3.22;;;0.90;;
70312;SDS011;57723;51.698;5.344;2022-11-18T13:16:44;4.53;;;1.00;;
70312;SDS011;57723;51.698;5.344;2022-11-18T13:19:36;3.03;;;0.85;;
70312;SDS011;57723;51.698;5.344;2022-11-18T13:22:01;5.77;;;0.90;;
70312;SDS011;57723;51.698;5.344;2022-11-18T13:24:46;1.95;;;0.80;;
70312;SDS011;57723;51.698;5.344;2022-11-18T13:34:50;3.40;;;1.20;;
70312;SDS011;57723;51.698;5.344;2022-11-18T13:37:19;2.45;;;1.02;;
70312;SDS011;57723;51.698;5.344;2022-11-18T13:39:45;4.33;;;1.10;;
70312;SDS011;57723;51.698;5.344;2022-11-18T13:42:17;3.88;;;0.98;;
70312;SDS011;57723;51.698;5.344;2022-11-18T13:45:04;5.70;;;0.90;;
70312;SDS011;57723;51.698;5.344;2022-11-18T13:55:21;2.45;;;0.80;;
70312;SDS011;57723;51.698;5.344;2022-11-18T13:57:51;3.15;;;0.90;;
70312;SDS011;57723;51.698;5.344;2022-11-18T14:00:21;2.33;;;1.17;;
70312;SDS011;57723;51.698;5.344;2022-11-18T14:02:48;1.88;;;0.77;;
70312;SDS011;57723;51.698;5.344;2022-11-18T14:05:18;2.90;;;0.85;;
70312;SDS011;57723;51.698;5.344;2022-11-18T14:07:55;1.52;;;1.00;;
70312;SDS011;57723;51.698;5.344;2022-11-18T14:10:31;2.15;;;0.80;;
70312;SDS011;57723;51.698;5.344;2022-11-18T14:12:58;2.17;;;0.95;;
70312;SDS011;57723;51.698;5.344;2022-11-18T14:17:56;1.63;;;0.83;;
70312;SDS011;57723;51.698;5.344;2022-11-18T14:20:24;3.63;;;0.85;;
70312;SDS011;57723;51.698;5.344;2022-11-18T14:22:51;2.80;;;0.77;;
70312;SDS011;57723;51.698;5.344;2022-11-18T14:25:24;1.85;;;1.15;;
70312;SDS011;57723;51.698;5.344;2022-11-18T14:27:54;1.70;;;0.70;;
70312;SDS011;57723;51.698;5.344;2022-11-18T14:30:28;2.25;;;0.85;;
70312;SDS011;57723;51.698;5.344;2022-11-18T14:35:30;3.47;;;0.88;;
70312;SDS011;57723;51.698;5.344;2022-11-18T14:37:56;2.10;;;0.90;;
70312;SDS011;57723;51.698;5.344;2022-11-18T14:40:21;1.52;;;0.80;;
70312;SDS011;57723;51.698;5.344;2022-11-18T14:42:47;1.90;;;0.90;;
70312;SDS011;57723;51.698;5.344;2022-11-18T14:45:12;2.25;;;0.90;;
70312;SDS011;57723;51.698;5.344;2022-11-18T14:47:38;0.90;;;0.70;;
70312;SDS011;57723;51.698;5.344;2022-11-18T14:50:05;1.43;;;0.80;;
70312;SDS011;57723;51.698;5.344;2022-11-18T14:52:33;2.97;;;1.17;;
70312;SDS011;57723;51.698;5.344;2022-11-18T14:54:58;5.03;;;1.00;;
70312;SDS011;57723;51.698;5.344;2022-11-18T14:57:23;2.23;;;0.90;;
70312;SDS011;57723;51.698;5.344;2022-11-18T14:59:48;2.40;;;1.10;;
70312;SDS011;57723;51.698;5.344;2022-11-18T15:02:14;2.67;;;1.20;;
70312;SDS011;57723;51.698;5.344;2022-11-18T15:04:40;2.38;;;1.27;;
70312;SDS011;57723;51.698;5.344;2022-11-18T15:07:05;1.43;;;0.83;;
70312;SDS011;57723;51.698;5.344;2022-11-18T15:09:30;2.23;;;1.10;;
70312;SDS011;57723;51.698;5.344;2022-11-18T15:11:55;2.77;;;1.00;;
70312;SDS011;57723;51.698;5.344;2022-11-18T15:14:21;1.83;;;0.90;;
70312;SDS011;57723;51.698;5.344;2022-11-18T15:16:46;2.53;;;0.83;;
70312;SDS011;57723;51.698;5.344;2022-11-18T15:19:13;2.00;;;0.90;;
70312;SDS011;57723;51.698;5.344;2022-11-18T15:21:39;1.70;;;0.82;;
70312;SDS011;57723;51.698;5.344;2022-11-18T15:24:04;1.97;;;0.80;;
70312;SDS011;57723;51.698;5.344;2022-11-18T15:26:37;3.20;;;0.80;;
70312;SDS011;57723;51.698;5.344;2022-11-18T15:29:03;1.67;;;0.80;;
70312;SDS011;57723;51.698;5.344;2022-11-18T15:31:29;1.03;;;0.70;;
70312;SDS011;57723;51.698;5.344;2022-11-18T15:33:54;1.50;;;0.80;;
70312;SDS011;57723;51.698;5.344;2022-11-18T15:36:20;1.97;;;0.80;;
70312;SDS011;57723;51.698;5.344;2022-11-18T15:38:46;1.67;;;0.70;;
70312;SDS011;57723;51.698;5.344;2022-11-18T15:41:18;1.70;;;0.80;;
70312;SDS011;57723;51.698;5.344;2022-11-18T15:43:45;2.33;;;0.90;;
70312;SDS011;57723;51.698;5.344;2022-11-18T15:46:11;3.67;;;0.90;;
70312;SDS011;57723;51.698;5.344;2022-11-18T15:48:36;2.83;;;0.90;;
70312;SDS011;57723;51.698;5.344;2022-11-18T15:51:02;3.47;;;0.90;;
70312;SDS011;57723;51.698;5.344;2022-11-18T15:53:27;2.17;;;0.90;;
70312;SDS011;57723;51.698;5.344;2022-11-18T15:56:12;2.28;;;0.88;;
70312;SDS011;57723;51.698;5.344;2022-11-18T15:58:37;0.90;;;0.65;;
70312;SDS011;57723;51.698;5.344;2022-11-18T16:01:02;1.63;;;0.83;;
70312;SDS011;57723;51.698;5.344;2022-11-18T16:03:27;1.87;;;0.80;;
70312;SDS011;57723;51.698;5.344;2022-11-18T16:05:53;2.13;;;0.68;;
70312;SDS011;57723;51.698;5.344;2022-11-18T16:08:18;1.97;;;0.90;;
70312;SDS011;57723;51.698;5.344;2022-11-18T16:10:43;2.27;;;0.80;;
70312;SDS011;57723;51.698;5.344;2022-11-18T16:13:27;1.02;;;0.60;;
70312;SDS011;57723;51.698;5.344;2022-11-18T16:15:53;1.53;;;0.90;;
70312;SDS011;57723;51.698;5.344;2022-11-18T16:18:18;2.13;;;0.85;;
70312;SDS011;57723;51.698;5.344;2022-11-18T16:20:43;2.47;;;0.90;;
70312;SDS011;57723;51.698;5.344;2022-11-18T16:23:08;2.27;;;0.80;;